Time;durP1;ratioP1;P1;durP2;ratioP2;P2;SDS_P1;SDS_P2;PMS_P1;PMS_P2;Temp;Humidity;BMP_temperature;BMP_pressure;BME280_temperature;BME280_humidity;BME280_pressure;Samples;Min_cycle;Max_cycle;Signal;HPM_P1;HPM_P2
2020/12/10 01:46:55;;;;;;;7.43;5.53;;;5.00;99.90;;;;;;5928572;23;20650;31
2020/12/10 01:49:21;;;;;;;6.43;5.13;;;4.90;99.90;;;;;;4919817;23;20233;-85
2020/12/10 01:51:46;;;;;;;6.53;5.33;;;4.90;99.90;;;;;;4920349;29;20225;-86
2020/12/10 01:54:12;;;;;;;6.90;5.50;;;4.90;99.90;;;;;;4922253;29;20214;-85
2020/12/10 01:56:38;;;;;;;7.17;4.90;;;4.90;99.90;;;;;;4923472;29;20634;-82
2020/12/10 01:59:04;;;;;;;7.40;5.37;;;4.90;99.90;;;;;;4921156;29;20193;-84
2020/12/10 02:01:31;;;;;;;6.10;5.00;;;4.80;99.90;;;;;;4920562;29;20209;-81
2020/12/10 02:03:57;;;;;;;7.00;5.40;;;4.90;99.90;;;;;;4922234;29;20178;-82
2020/12/10 02:06:25;;;;;;;7.33;5.13;;;5.00;99.90;;;;;;4920645;29;20186;-85
2020/12/10 02:08:51;;;;;;;6.80;4.87;;;5.10;99.90;;;;;;4904507;29;20596;-85
2020/12/10 02:11:17;;;;;;;6.33;4.83;;;5.20;99.90;;;;;;4921640;29;20342;-85
2020/12/10 02:13:43;;;;;;;6.57;5.17;;;5.30;99.90;;;;;;4929280;29;20178;-84
2020/12/10 02:16:09;;;;;;;7.50;4.67;;;5.40;99.90;;;;;;4923057;29;20173;-84
2020/12/10 02:18:35;;;;;;;6.13;4.50;;;5.40;99.90;;;;;;4920123;29;20491;-84
2020/12/10 02:21:03;;;;;;;7.43;4.70;;;5.40;99.90;;;;;;4924615;29;20182;-83
2020/12/10 02:23:28;;;;;;;6.07;4.80;;;5.50;99.90;;;;;;4923561;29;20184;-83
2020/12/10 02:25:54;;;;;;;6.97;5.00;;;5.70;99.90;;;;;;4924281;29;20186;-83
2020/12/10 02:28:20;;;;;;;9.50;5.40;;;5.70;99.90;;;;;;4935161;29;20176;-82
2020/12/10 02:30:47;;;;;;;6.63;5.10;;;5.90;99.90;;;;;;4938945;29;20173;-83
2020/12/10 02:33:14;;;;;;;6.07;4.20;;;5.70;99.90;;;;;;4918223;29;20217;-84
2020/12/10 02:35:41;;;;;;;6.40;4.50;;;5.50;99.90;;;;;;4918519;29;20188;-84
2020/12/10 02:38:09;;;;;;;9.00;5.73;;;5.50;99.90;;;;;;4917072;29;20177;-86
2020/12/10 02:40:41;;;;;;;5.23;4.30;;;5.40;99.90;;;;;;4918793;29;20170;-85
2020/12/10 02:43:06;;;;;;;6.50;4.50;;;5.40;99.90;;;;;;4918803;29;20202;-84
2020/12/10 02:45:33;;;;;;;6.43;4.47;;;5.50;99.90;;;;;;4918851;29;20221;-85
2020/12/10 02:47:58;;;;;;;6.33;4.37;;;5.50;99.90;;;;;;4918573;29;20668;-83
2020/12/10 02:50:24;;;;;;;7.07;5.20;;;5.50;99.90;;;;;;4917804;29;20329;-84
2020/12/10 02:52:50;;;;;;;7.63;4.97;;;5.50;99.90;;;;;;4919016;29;20221;-86
2020/12/10 02:55:17;;;;;;;6.93;5.10;;;5.50;99.90;;;;;;4918926;29;20181;-85
2020/12/10 02:57:42;;;;;;;6.60;4.50;;;5.50;99.90;;;;;;4935146;29;20189;-85
2020/12/10 03:00:10;;;;;;;6.50;4.70;;;5.60;99.90;;;;;;4933403;29;20652;-85
2020/12/10 03:02:36;;;;;;;7.33;5.00;;;5.40;99.90;;;;;;4917653;29;20876;-86
2020/12/10 03:05:02;;;;;;;6.57;4.73;;;5.30;99.90;;;;;;4920908;29;20216;-83
2020/12/10 03:07:28;;;;;;;7.43;4.90;;;5.30;99.90;;;;;;4923707;29;20182;-83
2020/12/10 03:09:54;;;;;;;7.50;5.07;;;5.30;99.90;;;;;;4917666;29;20187;-85
2020/12/10 03:12:19;;;;;;;6.67;4.63;;;5.30;99.90;;;;;;4918838;29;20217;-83
2020/12/10 03:14:45;;;;;;;8.47;4.73;;;5.30;99.90;;;;;;4917736;29;20248;-83
2020/12/10 03:17:11;;;;;;;7.27;5.33;;;5.20;99.90;;;;;;4917720;29;20188;-83
2020/12/10 03:19:37;;;;;;;8.13;5.60;;;5.10;99.90;;;;;;4918417;29;20185;-83
2020/12/10 03:22:03;;;;;;;7.83;5.20;;;5.00;99.90;;;;;;4937414;29;20177;-84
2020/12/10 03:24:28;;;;;;;7.57;5.53;;;5.00;99.90;;;;;;4923347;29;20178;-85
2020/12/10 03:26:54;;;;;;;7.27;5.30;;;5.00;99.90;;;;;;4917678;29;20165;-84
2020/12/10 03:29:19;;;;;;;8.80;5.37;;;5.00;99.90;;;;;;4917916;29;20317;-85
2020/12/10 03:31:45;;;;;;;9.43;5.80;;;5.10;99.90;;;;;;4919039;29;20212;-84
2020/12/10 03:34:11;;;;;;;8.30;5.10;;;5.10;99.90;;;;;;4919556;29;20189;-81
2020/12/10 03:36:54;;;;;;;8.57;4.70;;;5.10;99.90;;;;;;4922354;29;20629;-84
2020/12/10 03:39:21;;;;;;;8.57;5.97;;;5.20;99.90;;;;;;4919330;29;20180;-84
2020/12/10 03:41:49;;;;;;;8.07;5.40;;;5.20;99.90;;;;;;4934455;29;20166;-79
2020/12/10 03:44:15;;;;;;;9.53;5.93;;;5.20;99.90;;;;;;4927202;29;20548;-83
2020/12/10 03:46:41;;;;;;;8.07;5.40;;;5.20;99.90;;;;;;4920006;29;20166;-82
2020/12/10 03:49:07;;;;;;;7.43;5.83;;;5.20;99.90;;;;;;4915983;29;20708;-85
2020/12/10 03:51:33;;;;;;;8.40;5.40;;;5.20;99.90;;;;;;4917866;29;20649;-84
2020/12/10 03:53:59;;;;;;;8.57;6.17;;;5.20;99.90;;;;;;4918290;29;20206;-86
2020/12/10 03:56:25;;;;;;;9.97;6.20;;;5.40;99.90;;;;;;4917897;29;20174;-84
2020/12/10 03:58:50;;;;;;;10.77;5.83;;;5.40;99.90;;;;;;4926215;29;20652;-82
2020/12/10 04:01:16;;;;;;;9.17;5.77;;;5.40;99.90;;;;;;4923682;29;20226;-84
2020/12/10 04:03:42;;;;;;;10.33;6.30;;;5.50;99.90;;;;;;4917338;29;20185;-84
2020/12/10 04:06:08;;;;;;;9.20;5.73;;;5.50;99.90;;;;;;4917139;29;20189;-85
2020/12/10 04:08:34;;;;;;;9.50;5.93;;;5.50;99.90;;;;;;4918123;29;20173;-83
2020/12/10 04:11:00;;;;;;;12.37;6.97;;;5.60;99.90;;;;;;4916699;29;20633;-84
2020/12/10 04:13:25;;;;;;;9.80;6.50;;;5.50;99.90;;;;;;4917932;29;20174;-82
2020/12/10 04:15:51;;;;;;;9.10;5.73;;;5.70;99.90;;;;;;4917391;29;20225;-84
2020/12/10 04:18:16;;;;;;;8.83;6.23;;;5.80;99.90;;;;;;4916092;29;20217;-83
2020/12/10 04:20:42;;;;;;;8.83;6.10;;;5.80;99.90;;;;;;4917538;29;20185;-85
2020/12/10 04:23:07;;;;;;;10.50;6.33;;;5.90;99.90;;;;;;4916307;29;20268;-82
2020/12/10 04:25:33;;;;;;;10.60;6.13;;;6.00;99.90;;;;;;4917363;29;20174;-84
2020/12/10 04:27:59;;;;;;;10.20;6.80;;;6.10;99.90;;;;;;4919099;29;20200;-85
2020/12/10 04:30:24;;;;;;;9.23;6.10;;;6.10;99.90;;;;;;4920594;29;20251;-84
2020/12/10 04:32:51;;;;;;;10.93;7.47;;;5.90;99.90;;;;;;4917314;29;20201;-85
2020/12/10 04:35:16;;;;;;;11.13;6.87;;;6.00;99.90;;;;;;4917523;29;20184;-82
2020/12/10 04:37:42;;;;;;;9.13;6.03;;;6.10;99.90;;;;;;4917398;29;20226;-83
2020/12/10 04:40:08;;;;;;;11.53;6.87;;;6.10;99.90;;;;;;4916713;29;20180;-85
2020/12/10 04:42:35;;;;;;;10.93;6.83;;;6.10;99.90;;;;;;4917684;29;20174;-85
2020/12/10 04:45:01;;;;;;;9.73;6.77;;;6.00;99.90;;;;;;4922837;29;20169;-83
2020/12/10 04:47:29;;;;;;;10.43;6.27;;;5.90;99.90;;;;;;4918283;29;20190;-85
2020/12/10 04:49:56;;;;;;;13.03;7.57;;;5.90;99.90;;;;;;4917547;29;20202;-83
2020/12/10 04:52:22;;;;;;;12.90;7.13;;;5.80;99.90;;;;;;4916778;29;20213;-85
2020/12/10 04:54:49;;;;;;;10.00;7.00;;;5.80;99.90;;;;;;4917927;29;20181;-85
2020/12/10 04:57:16;;;;;;;10.60;7.40;;;5.80;99.90;;;;;;4916612;29;20178;-84
2020/12/10 04:59:42;;;;;;;11.13;7.10;;;5.90;99.90;;;;;;4916516;29;20668;-85
2020/12/10 05:02:11;;;;;;;11.27;7.20;;;6.10;99.90;;;;;;4920870;29;20209;-84
2020/12/10 05:04:40;;;;;;;11.07;7.10;;;6.20;99.90;;;;;;4922305;29;20261;-84
2020/12/10 05:07:06;;;;;;;11.17;7.20;;;6.30;99.90;;;;;;4921257;29;20717;-84
2020/12/10 05:09:33;;;;;;;12.57;8.20;;;6.20;99.90;;;;;;4928000;29;20221;-85
2020/12/10 05:11:59;;;;;;;11.00;7.40;;;6.30;99.90;;;;;;4924857;29;20202;-84
2020/12/10 05:14:24;;;;;;;13.13;7.53;;;6.30;99.90;;;;;;4927426;29;20166;-82
2020/12/10 05:17:14;;;;;;;12.60;8.13;;;6.30;99.90;;;;;;4930673;29;20622;-84
2020/12/10 05:19:40;;;;;;;11.83;6.83;;;6.40;99.90;;;;;;4934205;29;20213;-85
2020/12/10 05:22:08;;;;;;;11.63;7.67;;;6.50;99.90;;;;;;4931073;29;20178;-83
2020/12/10 05:24:34;;;;;;;11.47;7.63;;;6.60;99.90;;;;;;4941069;29;20166;-83
2020/12/10 05:27:17;;;;;;;12.17;8.17;;;6.50;99.90;;;;;;4941243;29;20197;-83
2020/12/10 05:29:43;;;;;;;11.97;7.57;;;6.60;99.90;;;;;;4941300;29;20174;-84
2020/12/10 05:32:27;;;;;;;8.90;6.67;;;6.60;99.90;;;;;;4919298;29;20234;-85
2020/12/10 05:34:53;;;;;;;12.20;7.27;;;6.50;99.90;;;;;;4920268;29;20170;-85
2020/12/10 05:37:30;;;;;;;15.77;9.17;;;6.50;99.90;;;;;;4920878;29;20260;-84
2020/12/10 05:40:01;;;;;;;12.37;8.33;;;6.70;99.90;;;;;;4920247;29;20261;-85
2020/12/10 05:42:37;;;;;;;11.70;7.40;;;6.80;99.90;;;;;;4920267;29;20173;-83
2020/12/10 05:45:12;;;;;;;10.97;7.80;;;6.90;99.90;;;;;;4920807;29;20196;-85
2020/12/10 05:47:45;;;;;;;11.93;7.67;;;6.80;99.90;;;;;;4919819;29;20228;-84
2020/12/10 05:50:15;;;;;;;10.67;7.77;;;6.70;99.90;;;;;;4920078;29;20213;-82
2020/12/10 05:53:01;;;;;;;12.33;8.73;;;6.70;99.90;;;;;;4921310;29;20193;-84
2020/12/10 05:55:28;;;;;;;12.23;8.03;;;6.80;99.90;;;;;;4922957;29;20178;-81
2020/12/10 05:57:54;;;;;;;10.73;7.20;;;6.80;99.90;;;;;;4921297;29;20178;-85
2020/12/10 06:00:20;;;;;;;10.67;7.07;;;6.80;99.90;;;;;;4919736;29;20221;-86
2020/12/10 06:02:48;;;;;;;11.17;7.60;;;6.80;99.90;;;;;;4920466;29;20267;-83
2020/12/10 06:05:14;;;;;;;12.00;7.60;;;6.60;99.90;;;;;;4919033;29;20265;-86
2020/12/10 06:08:11;;;;;;;10.33;7.17;;;6.60;99.90;;;;;;4920445;29;20177;-85
2020/12/10 06:10:41;;;;;;;11.93;7.93;;;6.60;99.90;;;;;;4921436;29;20174;-84
2020/12/10 06:13:09;;;;;;;9.57;6.70;;;6.50;99.90;;;;;;4939347;29;20197;-84
2020/12/10 06:15:35;;;;;;;9.57;6.83;;;6.50;99.90;;;;;;4922018;29;20189;-85
2020/12/10 06:18:07;;;;;;;10.10;7.13;;;6.50;99.90;;;;;;4920415;29;20178;-84
2020/12/10 06:20:38;;;;;;;11.10;7.37;;;6.60;99.90;;;;;;4921597;29;20174;-85
2020/12/10 06:23:30;;;;;;;9.00;6.53;;;6.70;99.90;;;;;;4918936;29;20177;-84
2020/12/10 06:25:59;;;;;;;8.33;6.63;;;6.80;99.90;;;;;;4921164;29;20189;-80
2020/12/10 06:28:25;;;;;;;10.70;7.53;;;6.90;99.90;;;;;;4923611;29;20185;-80
2020/12/10 06:31:12;;;;;;;8.63;6.63;;;6.90;99.90;;;;;;4927121;29;20170;-81
2020/12/10 06:33:42;;;;;;;8.83;6.17;;;6.90;99.90;;;;;;4937879;29;20249;-80
2020/12/10 06:36:25;;;;;;;9.17;6.53;;;6.80;99.90;;;;;;4925384;29;20173;-83
2020/12/10 06:38:53;;;;;;;10.10;7.57;;;6.60;99.90;;;;;;4919401;29;20213;-83
2020/12/10 06:41:19;;;;;;;10.70;7.20;;;6.60;99.90;;;;;;4920974;29;20650;-81
2020/12/10 06:43:45;;;;;;;12.20;8.17;;;6.70;99.90;;;;;;4919971;29;20181;-81
2020/12/10 06:46:10;;;;;;;12.30;7.73;;;6.70;99.90;;;;;;4917878;29;20208;-78
2020/12/10 06:48:47;;;;;;;10.60;7.70;;;6.80;99.90;;;;;;4916479;29;20677;-80
2020/12/10 06:51:14;;;;;;;11.17;7.57;;;6.90;99.90;;;;;;4917952;29;20173;-79
2020/12/10 06:53:41;;;;;;;11.47;7.47;;;6.70;99.90;;;;;;4918127;29;20174;-80
2020/12/10 06:56:09;;;;;;;13.30;7.87;;;6.90;99.90;;;;;;4918388;29;20182;-85
2020/12/10 06:58:39;;;;;;;12.53;8.87;;;6.90;99.90;;;;;;4917957;29;20172;-79
2020/12/10 07:01:24;;;;;;;12.90;7.80;;;6.90;99.90;;;;;;4917852;29;20193;-79
2020/12/10 07:03:55;;;;;;;10.33;7.73;;;6.90;99.90;;;;;;4918202;29;20173;-80
2020/12/10 07:06:22;;;;;;;11.13;8.00;;;7.00;99.90;;;;;;4917248;29;20672;-83
2020/12/10 07:09:26;;;;;;;10.00;7.47;;;7.00;99.90;;;;;;4923192;29;20598;-80
2020/12/10 07:11:52;;;;;;;12.27;8.70;;;7.10;99.90;;;;;;4916956;29;20296;-80
2020/12/10 07:14:33;;;;;;;11.03;6.90;;;7.00;99.90;;;;;;4917436;29;20668;-81
2020/12/10 07:17:00;;;;;;;9.20;6.83;;;7.00;99.90;;;;;;4921147;29;20177;-82
2020/12/10 07:19:26;;;;;;;12.20;7.90;;;6.80;99.90;;;;;;4920806;29;20186;-82
2020/12/10 07:21:52;;;;;;;11.60;7.73;;;6.70;99.90;;;;;;4921644;29;20457;-85
2020/12/10 07:24:17;;;;;;;10.03;7.57;;;6.70;99.90;;;;;;4918725;29;20327;-84
2020/12/10 07:26:43;;;;;;;13.27;8.47;;;6.70;99.90;;;;;;4917262;29;20178;-78
2020/12/10 07:29:09;;;;;;;11.37;7.77;;;6.60;99.90;;;;;;4906466;29;20338;-83
2020/12/10 07:31:35;;;;;;;9.67;7.47;;;6.60;99.90;;;;;;4907551;29;20213;-82
2020/12/10 07:34:01;;;;;;;11.80;7.40;;;6.70;99.90;;;;;;4913857;29;20269;-84
2020/12/10 07:36:28;;;;;;;11.77;7.83;;;6.80;99.90;;;;;;4917316;29;20237;-84
2020/12/10 07:38:54;;;;;;;10.13;7.63;;;6.90;99.90;;;;;;4916629;29;20178;-85
2020/12/10 07:41:19;;;;;;;12.43;8.10;;;6.90;99.90;;;;;;4916637;29;20177;-86
2020/12/10 07:43:50;;;;;;;11.67;7.63;;;6.80;99.90;;;;;;4916744;29;20329;-82
2020/12/10 07:46:17;;;;;;;12.03;8.00;;;6.80;99.90;;;;;;4914982;29;20189;-87
2020/12/10 07:48:45;;;;;;;11.80;8.97;;;6.60;99.90;;;;;;4897917;29;20222;-86
2020/12/10 07:51:21;;;;;;;12.70;8.93;;;6.60;99.90;;;;;;4898232;29;20540;-84
2020/12/10 07:53:48;;;;;;;13.07;9.13;;;6.50;99.90;;;;;;4898089;29;20178;-87
2020/12/10 07:56:24;;;;;;;14.30;8.80;;;6.40;99.90;;;;;;4898444;29;20226;-83
2020/12/10 07:59:19;;;;;;;12.60;8.30;;;6.50;99.90;;;;;;4913706;29;20578;-83
2020/12/10 08:01:52;;;;;;;17.97;8.80;;;6.80;99.90;;;;;;4913777;29;20192;-81
2020/12/10 08:04:20;;;;;;;13.20;9.37;;;6.60;99.90;;;;;;4916768;29;20170;-80
2020/12/10 08:06:47;;;;;;;16.00;10.10;;;6.60;99.90;;;;;;4916445;29;20241;-81
2020/12/10 08:09:13;;;;;;;13.93;9.33;;;6.80;99.90;;;;;;4915723;29;20180;-81
2020/12/10 08:11:53;;;;;;;12.00;9.37;;;6.90;99.90;;;;;;4916369;29;20231;-80
2020/12/10 08:14:28;;;;;;;12.07;9.23;;;6.80;99.90;;;;;;4915709;29;20174;-80
2020/12/10 08:16:55;;;;;;;15.50;9.60;;;6.80;99.90;;;;;;4915612;29;20180;-80
2020/12/10 08:19:30;;;;;;;13.93;9.30;;;6.90;99.90;;;;;;4914380;29;20554;-81
2020/12/10 08:21:56;;;;;;;12.70;8.87;;;6.90;99.90;;;;;;4915265;29;20181;-81
2020/12/10 08:24:44;;;;;;;14.33;10.10;;;7.00;99.90;;;;;;4914626;29;20553;-81
2020/12/10 08:27:11;;;;;;;13.53;9.70;;;6.80;99.90;;;;;;4913391;29;20193;-81
2020/12/10 08:29:37;;;;;;;13.87;9.40;;;7.00;99.90;;;;;;4915403;29;20173;-80
2020/12/10 08:32:11;;;;;;;13.73;9.57;;;6.90;99.90;;;;;;4914044;29;20213;-81
2020/12/10 08:34:38;;;;;;;13.20;9.80;;;6.80;99.90;;;;;;4915253;29;20273;-81
2020/12/10 08:37:06;;;;;;;14.50;10.80;;;6.80;99.90;;;;;;4918025;29;20260;-81
2020/12/10 08:39:37;;;;;;;11.97;9.10;;;6.90;99.90;;;;;;4921729;29;20177;-81
2020/12/10 08:42:04;;;;;;;14.03;9.60;;;7.00;99.90;;;;;;4920975;29;20213;-80
2020/12/10 08:44:48;;;;;;;12.23;9.13;;;7.00;99.90;;;;;;4920946;29;20257;-84
2020/12/10 08:47:22;;;;;;;13.30;8.80;;;6.80;99.90;;;;;;4918926;29;20193;-83
2020/12/10 08:50:25;;;;;;;12.37;8.03;;;6.90;99.90;;;;;;4918518;29;20223;-80
2020/12/10 08:53:03;;;;;;;13.10;9.10;;;6.90;99.90;;;;;;4923995;29;20212;-86
2020/12/10 08:55:47;;;;;;;11.80;8.37;;;7.00;99.90;;;;;;4930113;29;20217;-86
2020/12/10 08:58:15;;;;;;;11.13;8.33;;;7.00;99.90;;;;;;4934998;29;20208;-86
2020/12/10 09:00:42;;;;;;;10.63;8.07;;;7.10;99.90;;;;;;4933600;29;20630;-85
2020/12/10 09:03:08;;;;;;;11.60;8.80;;;7.10;99.90;;;;;;4938324;29;20186;-82
2020/12/10 09:05:33;;;;;;;12.80;9.13;;;7.20;99.90;;;;;;4936729;29;20624;-87
2020/12/10 09:07:59;;;;;;;13.37;10.40;;;7.10;99.90;;;;;;4943821;29;20201;-81
2020/12/10 09:10:28;;;;;;;13.93;10.13;;;7.20;99.90;;;;;;4927735;29;20220;-87
2020/12/10 09:12:54;;;;;;;14.80;11.03;;;7.30;99.90;;;;;;4920699;29;20672;-82
2020/12/10 09:15:20;;;;;;;13.07;10.00;;;7.00;99.90;;;;;;4925276;29;20217;-85
2020/12/10 09:17:46;;;;;;;11.77;8.77;;;7.00;99.90;;;;;;4926829;29;20188;-85
2020/12/10 09:20:11;;;;;;;13.47;10.07;;;7.10;99.90;;;;;;4934617;29;20178;-82
2020/12/10 09:22:37;;;;;;;13.27;9.50;;;7.20;99.90;;;;;;4927598;29;20208;-82
2020/12/10 09:25:03;;;;;;;12.90;9.30;;;7.30;99.90;;;;;;4923983;29;20212;-81
2020/12/10 09:27:28;;;;;;;13.23;8.83;;;7.30;99.90;;;;;;4921269;29;20209;-84
2020/12/10 09:29:54;;;;;;;14.70;10.17;;;7.30;99.90;;;;;;4921758;29;20543;-85
2020/12/10 09:32:21;;;;;;;11.67;9.00;;;7.30;99.90;;;;;;4918487;29;20231;-82
2020/12/10 09:34:47;;;;;;;11.60;8.17;;;7.20;99.90;;;;;;4924034;29;20224;-83
2020/12/10 09:37:13;;;;;;;12.47;9.17;;;7.20;99.90;;;;;;4937705;29;20176;-82
2020/12/10 09:39:39;;;;;;;11.60;8.30;;;7.30;99.90;;;;;;4917877;29;20553;-82
2020/12/10 09:42:05;;;;;;;11.57;8.13;;;7.20;99.90;;;;;;4919006;29;20177;-82
2020/12/10 09:44:31;;;;;;;15.37;7.77;;;7.20;99.90;;;;;;4922984;29;20173;-81
2020/12/10 09:46:57;;;;;;;13.43;8.40;;;7.30;99.90;;;;;;4923607;29;20638;-81
2020/12/10 09:49:23;;;;;;;10.97;8.17;;;7.30;99.90;;;;;;4925185;29;20236;-81
2020/12/10 09:51:55;;;;;;;11.43;8.40;;;7.40;99.90;;;;;;4915512;29;20228;-81
2020/12/10 09:59:17;;;;;;;11.80;8.20;;;7.50;99.90;;;;;;4917914;29;20658;-83
2020/12/10 10:01:45;;;;;;;10.00;7.80;;;7.50;99.90;;;;;;4917465;29;20186;-83
2020/12/10 10:04:11;;;;;;;13.20;8.13;;;7.40;99.90;;;;;;4916814;29;20173;-82
2020/12/10 10:06:37;;;;;;;13.10;8.33;;;7.40;99.90;;;;;;4916522;29;20192;-82
2020/12/10 10:09:04;;;;;;;10.37;7.47;;;7.40;99.90;;;;;;4924575;29;20191;-85
2020/12/10 10:11:30;;;;;;;11.27;8.43;;;7.20;99.90;;;;;;4935891;29;20173;-82
2020/12/10 10:13:56;;;;;;;9.83;7.60;;;7.30;99.90;;;;;;4935551;29;20212;-80
2020/12/10 10:16:31;;;;;;;12.57;8.10;;;7.20;99.90;;;;;;4936493;29;20170;-84
2020/12/10 10:18:58;;;;;;;11.10;8.33;;;7.30;99.90;;;;;;4937039;29;20187;-81
2020/12/10 10:21:26;;;;;;;11.77;8.13;;;7.50;99.90;;;;;;4937279;29;20634;-85
2020/12/10 10:23:52;;;;;;;12.63;8.13;;;7.50;99.90;;;;;;4937218;29;20169;-82
2020/12/10 10:26:18;;;;;;;13.13;8.30;;;7.40;99.90;;;;;;4919040;29;20533;-81
2020/12/10 10:28:47;;;;;;;13.93;8.77;;;7.50;99.90;;;;;;4901343;29;20652;-83
2020/12/10 10:31:12;;;;;;;13.17;8.53;;;7.70;99.90;;;;;;4900030;29;20175;-80
2020/12/10 10:33:38;;;;;;;10.37;8.33;;;7.80;99.90;;;;;;4897833;29;20226;-84
2020/12/10 10:36:04;;;;;;;11.03;7.80;;;7.90;99.90;;;;;;4897994;29;20686;-83
2020/12/10 10:38:29;;;;;;;12.80;8.37;;;7.70;99.90;;;;;;4907653;29;20178;-80
2020/12/10 10:40:55;;;;;;;11.27;8.00;;;7.60;99.90;;;;;;4919715;29;20186;-80
2020/12/10 10:43:21;;;;;;;12.23;7.47;;;7.50;99.90;;;;;;4945414;23;20245;-85
2020/12/10 10:45:47;;;;;;;10.03;7.80;;;7.60;99.90;;;;;;4921747;29;20189;-82
2020/12/10 10:48:13;;;;;;;11.70;7.87;;;7.60;99.90;;;;;;4919853;29;20622;-84
2020/12/10 10:50:38;;;;;;;11.93;8.07;;;7.40;99.90;;;;;;4921314;29;20193;-86
2020/12/10 10:53:05;;;;;;;11.83;7.83;;;7.30;99.90;;;;;;4919654;29;20248;-83
2020/12/10 10:55:30;;;;;;;11.67;7.70;;;7.30;99.90;;;;;;4917922;29;20184;-85
2020/12/10 10:57:56;;;;;;;12.67;7.77;;;7.20;99.90;;;;;;4918590;29;20190;-84
2020/12/10 11:00:22;;;;;;;10.17;7.43;;;7.20;99.90;;;;;;4918448;29;20178;-82
2020/12/10 11:02:48;;;;;;;10.00;7.03;;;7.20;99.90;;;;;;4921045;29;20722;-84
2020/12/10 11:05:13;;;;;;;9.93;7.10;;;7.30;99.90;;;;;;4918500;29;20213;-85
2020/12/10 11:07:41;;;;;;;8.90;7.23;;;7.20;99.90;;;;;;4919297;29;20620;-83
2020/12/10 11:10:11;;;;;;;10.40;7.20;;;7.20;99.90;;;;;;4931407;29;20656;-83
2020/12/10 11:12:36;;;;;;;11.40;8.10;;;7.10;99.90;;;;;;4937552;29;20200;-83
2020/12/10 11:15:03;;;;;;;10.77;8.40;;;7.10;99.90;;;;;;4939404;29;20172;-85
2020/12/10 11:17:28;;;;;;;13.57;8.37;;;7.30;99.90;;;;;;4938829;29;20185;-82
2020/12/10 11:19:54;;;;;;;12.00;7.80;;;7.50;99.90;;;;;;4938594;29;20180;-85
2020/12/10 11:22:21;;;;;;;11.30;7.73;;;7.60;99.90;;;;;;4938679;29;20187;-85
2020/12/10 11:24:46;;;;;;;14.03;8.67;;;7.50;99.90;;;;;;4936770;29;20165;-82
2020/12/10 11:27:12;;;;;;;12.10;8.27;;;7.60;99.90;;;;;;4935510;29;20658;-83
2020/12/10 11:29:38;;;;;;;12.10;8.33;;;7.70;99.90;;;;;;4918181;29;20193;-82
2020/12/10 11:32:04;;;;;;;12.53;8.93;;;7.70;99.90;;;;;;4918231;29;20213;-84
2020/12/10 11:34:31;;;;;;;10.20;7.53;;;7.90;99.90;;;;;;4920693;29;20181;-88
2020/12/10 11:36:57;;;;;;;10.97;8.07;;;8.00;99.90;;;;;;4921642;29;20177;-87
2020/12/10 11:39:23;;;;;;;10.80;7.70;;;7.70;99.90;;;;;;4905034;29;20189;-88
2020/12/10 11:41:51;;;;;;;13.23;8.10;;;7.60;99.90;;;;;;4923117;29;20225;-86
2020/12/10 11:44:17;;;;;;;11.90;9.27;;;7.70;99.90;;;;;;4906737;29;20245;-87
2020/12/10 11:46:46;;;;;;;13.03;9.13;;;7.90;99.90;;;;;;4904483;29;20194;-83
2020/12/10 11:49:13;;;;;;;11.77;8.40;;;7.90;99.90;;;;;;4901861;29;20186;-86
2020/12/10 11:51:41;;;;;;;12.43;8.40;;;8.00;99.90;;;;;;4902739;29;20366;-86
2020/12/10 11:54:07;;;;;;;13.47;9.70;;;8.20;99.90;;;;;;4900693;29;20182;-89
2020/12/10 11:56:33;;;;;;;16.13;11.47;;;8.20;99.90;;;;;;4903084;29;20177;-86
2020/12/10 11:58:59;;;;;;;14.87;9.73;;;8.30;99.90;;;;;;4901298;29;20196;-88
2020/12/10 12:01:25;;;;;;;13.27;9.67;;;8.40;99.90;;;;;;4905512;29;20519;-87
2020/12/10 12:03:51;;;;;;;21.00;15.23;;;8.50;99.90;;;;;;4902686;29;20607;-87
2020/12/10 12:06:17;;;;;;;18.30;12.87;;;8.80;99.90;;;;;;4886786;29;20214;-88
2020/12/10 12:08:43;;;;;;;13.13;10.40;;;8.90;99.90;;;;;;4907697;29;20181;-90
2020/12/10 12:11:09;;;;;;;11.40;8.67;;;8.80;99.90;;;;;;4922461;29;20188;-90
2020/12/10 12:13:35;;;;;;;12.97;8.17;;;8.80;99.90;;;;;;4923398;29;20812;-87
2020/12/10 12:16:02;;;;;;;12.80;9.40;;;8.90;99.90;;;;;;4897721;29;20182;-88
2020/12/10 12:18:28;;;;;;;16.03;9.83;;;8.80;99.90;;;;;;4904437;29;20190;-89
2020/12/10 12:20:54;;;;;;;13.90;9.67;;;8.80;99.90;;;;;;4902865;29;20167;-87
2020/12/10 12:23:19;;;;;;;12.37;8.60;;;8.70;99.90;;;;;;4903852;29;20702;-85
2020/12/10 12:25:46;;;;;;;13.93;9.73;;;8.80;99.90;;;;;;4901136;29;20174;-85
2020/12/10 12:28:12;;;;;;;12.90;8.67;;;8.80;99.90;;;;;;4900438;29;20269;-87
2020/12/10 12:30:38;;;;;;;12.57;9.23;;;8.90;99.90;;;;;;4902343;29;20210;-88
2020/12/10 12:33:04;;;;;;;12.90;9.03;;;8.80;99.90;;;;;;4906265;29;20228;-85
2020/12/10 12:35:30;;;;;;;12.73;9.30;;;9.00;99.90;;;;;;4906554;29;20178;-82
2020/12/10 12:37:57;;;;;;;10.70;8.03;;;9.10;99.90;;;;;;4905203;29;20174;-82
2020/12/10 12:40:23;;;;;;;12.80;8.63;;;9.10;99.90;;;;;;4905456;29;20175;-86
2020/12/10 12:42:48;;;;;;;14.17;8.20;;;9.20;99.90;;;;;;4912121;29;20240;-86
2020/12/10 12:45:14;;;;;;;11.20;8.60;;;9.10;99.90;;;;;;4910566;29;20182;-86
2020/12/10 12:47:44;;;;;;;10.90;8.50;;;9.00;99.90;;;;;;4910834;29;20178;-85
2020/12/10 12:50:10;;;;;;;11.70;8.30;;;8.80;99.90;;;;;;4908688;29;20179;-85
2020/12/10 12:52:37;;;;;;;15.90;8.57;;;8.90;99.90;;;;;;4910843;29;20682;-85
2020/12/10 12:55:03;;;;;;;14.17;9.20;;;9.00;99.90;;;;;;4908028;29;20274;-84
2020/12/10 12:57:30;;;;;;;13.73;9.23;;;9.20;99.90;;;;;;4907476;29;20178;-86
2020/12/10 12:59:55;;;;;;;14.00;8.83;;;9.30;99.90;;;;;;4916154;29;20175;-83
2020/12/10 13:02:21;;;;;;;13.33;7.77;;;9.10;99.90;;;;;;4917811;29;20646;-84
2020/12/10 13:04:47;;;;;;;12.50;8.10;;;9.20;99.90;;;;;;4919905;29;20175;-85
2020/12/10 13:07:12;;;;;;;12.07;8.33;;;9.20;99.90;;;;;;4919943;29;20211;-85
2020/12/10 13:09:38;;;;;;;12.13;7.43;;;9.10;99.90;;;;;;4930907;28;20178;-83
2020/12/10 13:12:07;;;;;;;11.93;9.07;;;9.10;99.90;;;;;;4937999;28;20311;-84
2020/12/10 13:14:32;;;;;;;13.00;8.23;;;9.10;99.90;;;;;;4938652;29;20209;-86
2020/12/10 13:16:58;;;;;;;11.80;8.03;;;9.10;99.90;;;;;;4927773;29;20186;-86
2020/12/10 13:19:24;;;;;;;10.70;7.23;;;8.80;99.90;;;;;;4906735;29;20170;-85
2020/12/10 13:21:50;;;;;;;15.20;7.90;;;8.50;99.90;;;;;;4906043;29;20265;-85
2020/12/10 13:24:15;;;;;;;11.87;7.57;;;8.40;99.90;;;;;;4908646;29;20196;-87
2020/12/10 13:26:41;;;;;;;13.50;8.10;;;8.70;99.90;;;;;;4909054;29;20198;-86
2020/12/10 13:29:06;;;;;;;15.47;9.00;;;8.70;99.90;;;;;;4905354;29;20189;-86
2020/12/10 13:31:36;;;;;;;13.83;7.93;;;8.70;99.90;;;;;;4907463;29;20218;-84
2020/12/10 13:34:04;;;;;;;10.40;6.87;;;8.70;99.90;;;;;;4900849;29;20215;-80
2020/12/10 13:36:32;;;;;;;15.00;9.87;;;8.70;99.90;;;;;;4900861;29;20211;-82
2020/12/10 13:38:59;;;;;;;11.40;8.73;;;8.70;99.90;;;;;;4884724;29;20242;-81
2020/12/10 13:41:25;;;;;;;13.40;7.50;;;8.90;99.90;;;;;;4901515;29;20182;-83
2020/12/10 13:43:52;;;;;;;12.37;7.47;;;8.80;99.90;;;;;;4906369;29;20214;-83
2020/12/10 13:46:18;;;;;;;10.87;7.73;;;8.80;99.90;;;;;;4917007;29;20197;-81
2020/12/10 13:48:44;;;;;;;11.77;7.90;;;8.90;99.90;;;;;;4911679;29;20238;-81
2020/12/10 13:51:22;;;;;;;12.30;6.80;;;9.00;99.90;;;;;;4905626;29;20591;-81
2020/12/10 13:53:48;;;;;;;10.47;6.80;;;8.90;99.90;;;;;;4910416;29;20174;-82
2020/12/10 13:56:15;;;;;;;11.83;7.70;;;8.70;99.90;;;;;;4921850;29;20186;-84
2020/12/10 13:58:43;;;;;;;14.27;7.70;;;8.70;99.90;;;;;;4917669;29;20174;-85
2020/12/10 14:01:09;;;;;;;10.67;8.00;;;8.70;99.90;;;;;;4913009;29;20213;-86
2020/12/10 14:03:38;;;;;;;16.23;7.83;;;8.70;99.90;;;;;;4909797;29;20561;-82
2020/12/10 14:06:04;;;;;;;13.23;6.77;;;8.70;99.90;;;;;;4906397;29;20182;-84
2020/12/10 14:08:30;;;;;;;12.17;7.83;;;8.60;99.90;;;;;;4905743;29;20193;-83
2020/12/10 14:10:58;;;;;;;23.07;11.43;;;8.50;99.90;;;;;;4905579;29;20181;-85
2020/12/10 14:13:24;;;;;;;17.27;10.43;;;8.40;99.90;;;;;;4905240;29;20233;-84
2020/12/10 14:15:50;;;;;;;16.40;9.30;;;8.40;99.90;;;;;;4905009;29;20178;-84
2020/12/10 14:18:19;;;;;;;24.53;12.93;;;8.60;99.90;;;;;;4917451;29;20178;-85
2020/12/10 14:20:46;;;;;;;42.30;20.57;;;8.90;99.90;;;;;;4912030;29;20183;-87
2020/12/10 14:23:13;;;;;;;71.13;31.57;;;8.70;99.90;;;;;;4909711;29;20642;-86
2020/12/10 14:25:39;;;;;;;51.23;24.90;;;8.80;99.90;;;;;;4903084;29;20206;-81
2020/12/10 14:28:05;;;;;;;27.03;15.30;;;8.90;99.90;;;;;;4906009;29;20186;-87
2020/12/10 14:30:30;;;;;;;21.63;12.13;;;8.90;99.90;;;;;;4904427;29;20179;-86
2020/12/10 14:32:56;;;;;;;21.13;12.03;;;8.70;99.90;;;;;;4903675;29;20217;-87
2020/12/10 14:35:24;;;;;;;15.33;9.80;;;8.60;99.90;;;;;;4902447;29;20205;-86
2020/12/10 14:37:49;;;;;;;11.93;8.37;;;8.50;99.90;;;;;;4895146;29;20970;-84
2020/12/10 14:40:15;;;;;;;12.63;7.93;;;8.40;99.90;;;;;;4904975;29;20182;-84
2020/12/10 14:42:41;;;;;;;17.23;10.30;;;8.30;99.90;;;;;;4910196;29;20196;-84